sensor_id;sensor_type;location;lat;lon;timestamp;P1;durP1;ratioP1;P2;durP2;ratioP2
62790;SDS011;48830;53.426;10.300;2023-05-13T00:01:02;8.75;;;4.40;;
62790;SDS011;48830;53.426;10.300;2023-05-13T00:03:28;8.48;;;4.18;;
62790;SDS011;48830;53.426;10.300;2023-05-13T00:05:53;6.65;;;4.00;;
62790;SDS011;48830;53.426;10.300;2023-05-13T00:08:19;6.13;;;3.90;;
62790;SDS011;48830;53.426;10.300;2023-05-13T00:10:44;8.02;;;4.00;;
62790;SDS011;48830;53.426;10.300;2023-05-13T00:13:10;7.68;;;4.30;;
62790;SDS011;48830;53.426;10.300;2023-05-13T00:15:35;7.10;;;4.60;;
62790;SDS011;48830;53.426;10.300;2023-05-13T00:18:01;7.70;;;4.18;;
62790;SDS011;48830;53.426;10.300;2023-05-13T00:20:26;8.25;;;4.38;;
62790;SDS011;48830;53.426;10.300;2023-05-13T00:22:52;7.70;;;4.20;;
62790;SDS011;48830;53.426;10.300;2023-05-13T00:25:17;7.35;;;4.00;;
62790;SDS011;48830;53.426;10.300;2023-05-13T00:27:42;6.93;;;4.35;;
62790;SDS011;48830;53.426;10.300;2023-05-13T00:30:09;12.25;;;4.47;;
62790;SDS011;48830;53.426;10.300;2023-05-13T00:32:35;8.55;;;4.50;;
62790;SDS011;48830;53.426;10.300;2023-05-13T00:35:01;8.65;;;4.65;;
62790;SDS011;48830;53.426;10.300;2023-05-13T00:37:26;7.00;;;4.43;;
62790;SDS011;48830;53.426;10.300;2023-05-13T00:39:52;9.77;;;4.10;;
62790;SDS011;48830;53.426;10.300;2023-05-13T00:42:17;6.68;;;4.50;;
62790;SDS011;48830;53.426;10.300;2023-05-13T00:44:43;7.68;;;4.22;;
62790;SDS011;48830;53.426;10.300;2023-05-13T00:47:09;8.70;;;4.65;;
62790;SDS011;48830;53.426;10.300;2023-05-13T00:49:35;9.60;;;4.50;;
62790;SDS011;48830;53.426;10.300;2023-05-13T00:52:01;6.60;;;4.70;;
62790;SDS011;48830;53.426;10.300;2023-05-13T00:54:27;7.53;;;4.47;;
62790;SDS011;48830;53.426;10.300;2023-05-13T00:56:53;7.93;;;4.40;;
62790;SDS011;48830;53.426;10.300;2023-05-13T00:59:24;8.93;;;4.70;;
62790;SDS011;48830;53.426;10.300;2023-05-13T01:12:32;9.10;;;4.72;;
62790;SDS011;48830;53.426;10.300;2023-05-13T01:15:04;8.73;;;4.78;;
62790;SDS011;48830;53.426;10.300;2023-05-13T01:17:31;7.40;;;4.68;;
62790;SDS011;48830;53.426;10.300;2023-05-13T01:20:05;8.35;;;4.20;;
62790;SDS011;48830;53.426;10.300;2023-05-13T01:22:32;8.23;;;5.03;;
62790;SDS011;48830;53.426;10.300;2023-05-13T01:24:58;8.60;;;5.30;;
62790;SDS011;48830;53.426;10.300;2023-05-13T01:27:23;10.07;;;4.50;;
62790;SDS011;48830;53.426;10.300;2023-05-13T01:29:50;7.53;;;4.72;;
62790;SDS011;48830;53.426;10.300;2023-05-13T01:32:22;9.25;;;4.68;;
62790;SDS011;48830;53.426;10.300;2023-05-13T01:34:49;7.80;;;4.80;;
62790;SDS011;48830;53.426;10.300;2023-05-13T01:37:16;8.57;;;5.00;;
62790;SDS011;48830;53.426;10.300;2023-05-13T01:39:42;10.43;;;4.43;;
62790;SDS011;48830;53.426;10.300;2023-05-13T01:42:11;8.90;;;4.97;;
62790;SDS011;48830;53.426;10.300;2023-05-13T01:44:37;8.00;;;5.10;;
62790;SDS011;48830;53.426;10.300;2023-05-13T01:47:03;9.68;;;4.97;;
62790;SDS011;48830;53.426;10.300;2023-05-13T01:49:29;9.90;;;5.07;;
62790;SDS011;48830;53.426;10.300;2023-05-13T01:51:54;8.02;;;4.80;;
62790;SDS011;48830;53.426;10.300;2023-05-13T01:54:20;8.57;;;5.35;;
62790;SDS011;48830;53.426;10.300;2023-05-13T01:56:51;9.25;;;4.57;;
62790;SDS011;48830;53.426;10.300;2023-05-13T01:59:17;10.15;;;5.82;;
62790;SDS011;48830;53.426;10.300;2023-05-13T02:01:42;8.25;;;5.20;;
62790;SDS011;48830;53.426;10.300;2023-05-13T02:04:09;7.57;;;5.10;;
62790;SDS011;48830;53.426;10.300;2023-05-13T02:06:34;7.65;;;5.45;;
62790;SDS011;48830;53.426;10.300;2023-05-13T02:09:00;11.68;;;5.32;;
62790;SDS011;48830;53.426;10.300;2023-05-13T02:11:25;8.75;;;5.88;;
62790;SDS011;48830;53.426;10.300;2023-05-13T02:13:51;9.45;;;5.35;;
62790;SDS011;48830;53.426;10.300;2023-05-13T02:16:17;9.77;;;5.45;;
62790;SDS011;48830;53.426;10.300;2023-05-13T02:18:42;11.60;;;5.57;;
62790;SDS011;48830;53.426;10.300;2023-05-13T02:21:08;10.75;;;6.38;;
62790;SDS011;48830;53.426;10.300;2023-05-13T02:23:34;7.80;;;5.15;;
62790;SDS011;48830;53.426;10.300;2023-05-13T02:26:00;8.88;;;5.50;;
62790;SDS011;48830;53.426;10.300;2023-05-13T02:28:26;9.13;;;5.40;;
62790;SDS011;48830;53.426;10.300;2023-05-13T02:30:51;13.43;;;5.63;;
62790;SDS011;48830;53.426;10.300;2023-05-13T02:33:17;8.50;;;5.05;;
62790;SDS011;48830;53.426;10.300;2023-05-13T02:35:42;11.95;;;6.18;;
62790;SDS011;48830;53.426;10.300;2023-05-13T02:38:08;9.30;;;5.80;;
62790;SDS011;48830;53.426;10.300;2023-05-13T02:40:34;12.18;;;6.00;;
62790;SDS011;48830;53.426;10.300;2023-05-13T02:43:00;8.65;;;5.53;;
62790;SDS011;48830;53.426;10.300;2023-05-13T02:45:38;10.38;;;5.75;;
62790;SDS011;48830;53.426;10.300;2023-05-13T02:48:04;11.13;;;6.63;;
62790;SDS011;48830;53.426;10.300;2023-05-13T02:50:30;9.95;;;6.28;;
62790;SDS011;48830;53.426;10.300;2023-05-13T02:52:56;9.55;;;6.10;;
62790;SDS011;48830;53.426;10.300;2023-05-13T02:55:22;10.93;;;6.53;;
62790;SDS011;48830;53.426;10.300;2023-05-13T02:57:48;11.45;;;6.60;;
62790;SDS011;48830;53.426;10.300;2023-05-13T03:00:13;11.73;;;6.63;;
62790;SDS011;48830;53.426;10.300;2023-05-13T03:02:39;11.23;;;6.65;;
62790;SDS011;48830;53.426;10.300;2023-05-13T03:05:06;13.20;;;7.10;;
62790;SDS011;48830;53.426;10.300;2023-05-13T03:07:32;12.15;;;6.90;;
62790;SDS011;48830;53.426;10.300;2023-05-13T03:09:58;11.57;;;7.55;;
62790;SDS011;48830;53.426;10.300;2023-05-13T03:12:23;13.80;;;7.05;;
62790;SDS011;48830;53.426;10.300;2023-05-13T03:14:49;9.98;;;7.28;;
62790;SDS011;48830;53.426;10.300;2023-05-13T03:17:15;10.18;;;7.70;;
62790;SDS011;48830;53.426;10.300;2023-05-13T03:19:40;10.77;;;7.30;;
62790;SDS011;48830;53.426;10.300;2023-05-13T03:22:06;12.65;;;7.03;;
62790;SDS011;48830;53.426;10.300;2023-05-13T03:24:31;10.43;;;7.30;;
62790;SDS011;48830;53.426;10.300;2023-05-13T03:26:57;10.70;;;7.18;;
62790;SDS011;48830;53.426;10.300;2023-05-13T03:29:23;11.65;;;7.65;;
62790;SDS011;48830;53.426;10.300;2023-05-13T03:31:51;11.25;;;7.32;;
62790;SDS011;48830;53.426;10.300;2023-05-13T03:34:17;11.45;;;6.68;;
62790;SDS011;48830;53.426;10.300;2023-05-13T03:36:42;13.73;;;7.72;;
62790;SDS011;48830;53.426;10.300;2023-05-13T03:39:09;11.27;;;7.40;;
62790;SDS011;48830;53.426;10.300;2023-05-13T03:41:36;10.95;;;7.70;;
62790;SDS011;48830;53.426;10.300;2023-05-13T03:44:01;10.50;;;7.47;;
62790;SDS011;48830;53.426;10.300;2023-05-13T03:46:27;10.70;;;6.85;;
62790;SDS011;48830;53.426;10.300;2023-05-13T03:48:54;9.45;;;7.65;;
62790;SDS011;48830;53.426;10.300;2023-05-13T03:51:20;10.95;;;7.70;;
62790;SDS011;48830;53.426;10.300;2023-05-13T03:53:46;11.68;;;7.50;;
62790;SDS011;48830;53.426;10.300;2023-05-13T03:56:12;12.25;;;8.40;;
62790;SDS011;48830;53.426;10.300;2023-05-13T03:58:38;13.32;;;8.48;;
62790;SDS011;48830;53.426;10.300;2023-05-13T04:01:05;11.32;;;8.52;;
62790;SDS011;48830;53.426;10.300;2023-05-13T04:03:31;12.23;;;8.70;;
62790;SDS011;48830;53.426;10.300;2023-05-13T04:05:57;14.68;;;8.52;;
62790;SDS011;48830;53.426;10.300;2023-05-13T04:08:22;15.50;;;9.02;;
62790;SDS011;48830;53.426;10.300;2023-05-13T04:10:48;13.15;;;8.40;;
62790;SDS011;48830;53.426;10.300;2023-05-13T04:13:13;11.85;;;8.13;;
62790;SDS011;48830;53.426;10.300;2023-05-13T04:15:38;13.32;;;8.80;;
62790;SDS011;48830;53.426;10.300;2023-05-13T04:18:04;12.80;;;9.25;;
62790;SDS011;48830;53.426;10.300;2023-05-13T04:20:30;13.20;;;8.43;;
62790;SDS011;48830;53.426;10.300;2023-05-13T04:22:55;14.43;;;8.32;;
62790;SDS011;48830;53.426;10.300;2023-05-13T04:25:21;15.88;;;9.00;;
62790;SDS011;48830;53.426;10.300;2023-05-13T04:27:46;13.55;;;9.02;;
62790;SDS011;48830;53.426;10.300;2023-05-13T04:30:19;16.65;;;10.05;;
62790;SDS011;48830;53.426;10.300;2023-05-13T04:32:45;12.75;;;9.02;;
62790;SDS011;48830;53.426;10.300;2023-05-13T04:35:12;13.50;;;9.10;;
62790;SDS011;48830;53.426;10.300;2023-05-13T04:37:39;11.13;;;8.90;;
62790;SDS011;48830;53.426;10.300;2023-05-13T04:40:07;13.80;;;8.75;;
62790;SDS011;48830;53.426;10.300;2023-05-13T04:42:33;13.68;;;9.50;;
62790;SDS011;48830;53.426;10.300;2023-05-13T04:44:59;17.08;;;9.40;;
62790;SDS011;48830;53.426;10.300;2023-05-13T04:47:25;14.20;;;8.57;;
62790;SDS011;48830;53.426;10.300;2023-05-13T04:49:50;11.77;;;8.38;;
62790;SDS011;48830;53.426;10.300;2023-05-13T04:52:16;12.68;;;8.68;;
62790;SDS011;48830;53.426;10.300;2023-05-13T04:54:42;14.02;;;8.73;;
62790;SDS011;48830;53.426;10.300;2023-05-13T04:57:08;15.07;;;8.27;;
62790;SDS011;48830;53.426;10.300;2023-05-13T04:59:34;16.05;;;9.00;;
62790;SDS011;48830;53.426;10.300;2023-05-13T05:02:00;14.07;;;8.32;;
62790;SDS011;48830;53.426;10.300;2023-05-13T05:04:25;12.02;;;8.77;;
62790;SDS011;48830;53.426;10.300;2023-05-13T05:06:51;11.48;;;8.18;;
62790;SDS011;48830;53.426;10.300;2023-05-13T05:09:17;12.05;;;8.40;;
62790;SDS011;48830;53.426;10.300;2023-05-13T05:11:44;11.80;;;7.80;;
62790;SDS011;48830;53.426;10.300;2023-05-13T05:14:10;12.98;;;9.07;;
62790;SDS011;48830;53.426;10.300;2023-05-13T05:16:36;13.43;;;7.90;;
62790;SDS011;48830;53.426;10.300;2023-05-13T05:19:02;13.43;;;7.85;;
62790;SDS011;48830;53.426;10.300;2023-05-13T05:21:28;11.80;;;7.70;;
62790;SDS011;48830;53.426;10.300;2023-05-13T05:23:55;11.95;;;7.82;;
62790;SDS011;48830;53.426;10.300;2023-05-13T05:26:22;14.18;;;7.45;;
62790;SDS011;48830;53.426;10.300;2023-05-13T05:28:47;12.00;;;7.20;;
62790;SDS011;48830;53.426;10.300;2023-05-13T05:31:14;10.95;;;7.05;;
62790;SDS011;48830;53.426;10.300;2023-05-13T05:33:40;12.43;;;7.68;;
62790;SDS011;48830;53.426;10.300;2023-05-13T05:36:06;11.77;;;7.43;;
62790;SDS011;48830;53.426;10.300;2023-05-13T05:38:33;10.23;;;7.03;;
62790;SDS011;48830;53.426;10.300;2023-05-13T05:40:59;12.60;;;7.78;;
62790;SDS011;48830;53.426;10.300;2023-05-13T05:43:25;12.35;;;6.90;;
62790;SDS011;48830;53.426;10.300;2023-05-13T05:45:51;11.27;;;7.40;;
62790;SDS011;48830;53.426;10.300;2023-05-13T05:48:18;10.10;;;6.65;;
62790;SDS011;48830;53.426;10.300;2023-05-13T05:50:43;9.77;;;6.80;;
62790;SDS011;48830;53.426;10.300;2023-05-13T05:53:12;9.73;;;6.43;;
62790;SDS011;48830;53.426;10.300;2023-05-13T05:55:38;10.30;;;6.88;;
62790;SDS011;48830;53.426;10.300;2023-05-13T05:58:04;12.30;;;6.90;;
62790;SDS011;48830;53.426;10.300;2023-05-13T06:00:31;11.27;;;6.70;;
62790;SDS011;48830;53.426;10.300;2023-05-13T06:02:57;12.38;;;6.50;;
62790;SDS011;48830;53.426;10.300;2023-05-13T06:05:23;10.80;;;6.05;;
62790;SDS011;48830;53.426;10.300;2023-05-13T06:07:48;9.80;;;5.55;;
62790;SDS011;48830;53.426;10.300;2023-05-13T06:10:14;8.23;;;5.85;;
62790;SDS011;48830;53.426;10.300;2023-05-13T06:12:40;16.60;;;5.88;;
62790;SDS011;48830;53.426;10.300;2023-05-13T06:15:07;9.40;;;5.40;;
62790;SDS011;48830;53.426;10.300;2023-05-13T06:17:35;8.25;;;5.45;;
62790;SDS011;48830;53.426;10.300;2023-05-13T06:20:03;8.48;;;5.10;;
62790;SDS011;48830;53.426;10.300;2023-05-13T06:22:29;7.72;;;4.95;;
62790;SDS011;48830;53.426;10.300;2023-05-13T06:24:54;9.93;;;5.13;;
62790;SDS011;48830;53.426;10.300;2023-05-13T06:27:20;7.05;;;4.80;;
62790;SDS011;48830;53.426;10.300;2023-05-13T06:29:45;7.85;;;4.82;;
62790;SDS011;48830;53.426;10.300;2023-05-13T06:32:11;8.00;;;4.78;;
62790;SDS011;48830;53.426;10.300;2023-05-13T06:34:36;7.95;;;4.90;;
62790;SDS011;48830;53.426;10.300;2023-05-13T06:37:04;9.00;;;5.05;;
62790;SDS011;48830;53.426;10.300;2023-05-13T06:39:29;8.57;;;4.25;;
62790;SDS011;48830;53.426;10.300;2023-05-13T06:41:55;9.18;;;5.32;;
62790;SDS011;48830;53.426;10.300;2023-05-13T06:44:24;7.57;;;4.80;;
62790;SDS011;48830;53.426;10.300;2023-05-13T06:46:53;10.57;;;4.53;;
62790;SDS011;48830;53.426;10.300;2023-05-13T06:49:18;10.25;;;4.72;;
62790;SDS011;48830;53.426;10.300;2023-05-13T06:51:44;8.45;;;4.47;;
62790;SDS011;48830;53.426;10.300;2023-05-13T06:54:09;8.10;;;4.57;;
62790;SDS011;48830;53.426;10.300;2023-05-13T06:56:35;10.32;;;4.68;;
62790;SDS011;48830;53.426;10.300;2023-05-13T06:59:00;11.60;;;4.47;;
62790;SDS011;48830;53.426;10.300;2023-05-13T07:01:26;11.20;;;4.53;;
62790;SDS011;48830;53.426;10.300;2023-05-13T07:03:51;8.05;;;4.47;;
62790;SDS011;48830;53.426;10.300;2023-05-13T07:06:17;8.77;;;4.57;;
62790;SDS011;48830;53.426;10.300;2023-05-13T07:08:42;7.28;;;4.03;;
62790;SDS011;48830;53.426;10.300;2023-05-13T07:11:08;9.27;;;4.18;;
62790;SDS011;48830;53.426;10.300;2023-05-13T07:13:33;8.50;;;4.28;;
62790;SDS011;48830;53.426;10.300;2023-05-13T07:15:59;7.28;;;4.40;;
62790;SDS011;48830;53.426;10.300;2023-05-13T07:18:26;10.40;;;4.45;;
62790;SDS011;48830;53.426;10.300;2023-05-13T07:20:53;10.57;;;4.40;;
62790;SDS011;48830;53.426;10.300;2023-05-13T07:23:20;10.05;;;4.60;;
62790;SDS011;48830;53.426;10.300;2023-05-13T07:25:46;6.57;;;4.18;;
62790;SDS011;48830;53.426;10.300;2023-05-13T07:28:11;8.30;;;4.50;;
62790;SDS011;48830;53.426;10.300;2023-05-13T07:30:40;8.40;;;4.00;;
62790;SDS011;48830;53.426;10.300;2023-05-13T07:33:08;7.72;;;4.20;;
62790;SDS011;48830;53.426;10.300;2023-05-13T07:35:33;7.55;;;4.32;;
62790;SDS011;48830;53.426;10.300;2023-05-13T07:37:59;7.78;;;4.30;;
62790;SDS011;48830;53.426;10.300;2023-05-13T07:40:24;11.38;;;4.03;;
62790;SDS011;48830;53.426;10.300;2023-05-13T07:42:50;8.38;;;4.60;;
62790;SDS011;48830;53.426;10.300;2023-05-13T07:45:16;10.57;;;4.40;;
62790;SDS011;48830;53.426;10.300;2023-05-13T07:47:41;6.90;;;4.07;;
62790;SDS011;48830;53.426;10.300;2023-05-13T07:50:06;8.23;;;4.28;;
62790;SDS011;48830;53.426;10.300;2023-05-13T07:52:32;9.25;;;4.30;;
62790;SDS011;48830;53.426;10.300;2023-05-13T07:54:58;8.27;;;4.53;;
62790;SDS011;48830;53.426;10.300;2023-05-13T07:57:23;7.70;;;4.72;;
62790;SDS011;48830;53.426;10.300;2023-05-13T07:59:49;10.48;;;4.78;;
62790;SDS011;48830;53.426;10.300;2023-05-13T08:02:14;8.90;;;4.47;;
62790;SDS011;48830;53.426;10.300;2023-05-13T08:04:40;6.85;;;4.07;;
62790;SDS011;48830;53.426;10.300;2023-05-13T08:07:05;10.40;;;4.30;;
62790;SDS011;48830;53.426;10.300;2023-05-13T08:09:32;6.05;;;4.13;;
62790;SDS011;48830;53.426;10.300;2023-05-13T08:11:58;9.50;;;4.20;;
62790;SDS011;48830;53.426;10.300;2023-05-13T08:14:23;10.93;;;4.68;;
62790;SDS011;48830;53.426;10.300;2023-05-13T08:16:49;6.90;;;3.97;;
62790;SDS011;48830;53.426;10.300;2023-05-13T08:19:14;8.77;;;4.32;;
62790;SDS011;48830;53.426;10.300;2023-05-13T08:21:40;7.85;;;4.38;;
62790;SDS011;48830;53.426;10.300;2023-05-13T08:24:06;9.55;;;4.30;;
62790;SDS011;48830;53.426;10.300;2023-05-13T08:26:31;9.43;;;4.25;;
62790;SDS011;48830;53.426;10.300;2023-05-13T08:28:58;7.57;;;4.00;;
62790;SDS011;48830;53.426;10.300;2023-05-13T08:31:23;9.25;;;4.05;;
62790;SDS011;48830;53.426;10.300;2023-05-13T08:33:49;9.57;;;4.50;;
62790;SDS011;48830;53.426;10.300;2023-05-13T08:36:16;8.68;;;4.28;;
62790;SDS011;48830;53.426;10.300;2023-05-13T08:38:41;9.07;;;4.38;;
62790;SDS011;48830;53.426;10.300;2023-05-13T08:41:08;9.55;;;3.88;;
62790;SDS011;48830;53.426;10.300;2023-05-13T08:43:37;8.23;;;4.40;;
62790;SDS011;48830;53.426;10.300;2023-05-13T08:46:03;10.90;;;4.25;;
62790;SDS011;48830;53.426;10.300;2023-05-13T08:48:33;7.00;;;3.97;;
62790;SDS011;48830;53.426;10.300;2023-05-13T08:50:59;8.98;;;4.75;;
62790;SDS011;48830;53.426;10.300;2023-05-13T08:53:26;8.07;;;4.30;;
62790;SDS011;48830;53.426;10.300;2023-05-13T08:55:52;7.60;;;3.90;;
62790;SDS011;48830;53.426;10.300;2023-05-13T08:58:18;6.85;;;4.43;;
62790;SDS011;48830;53.426;10.300;2023-05-13T09:00:43;6.70;;;3.65;;
62790;SDS011;48830;53.426;10.300;2023-05-13T09:03:10;8.30;;;4.13;;
62790;SDS011;48830;53.426;10.300;2023-05-13T09:05:37;9.10;;;3.80;;
62790;SDS011;48830;53.426;10.300;2023-05-13T09:08:05;6.40;;;3.63;;
62790;SDS011;48830;53.426;10.300;2023-05-13T09:10:32;6.80;;;3.85;;
62790;SDS011;48830;53.426;10.300;2023-05-13T09:12:58;9.10;;;4.57;;
62790;SDS011;48830;53.426;10.300;2023-05-13T09:15:26;8.88;;;4.03;;
62790;SDS011;48830;53.426;10.300;2023-05-13T09:17:57;9.32;;;3.92;;
62790;SDS011;48830;53.426;10.300;2023-05-13T09:20:25;7.80;;;3.88;;
62790;SDS011;48830;53.426;10.300;2023-05-13T09:23:12;10.20;;;4.30;;
62790;SDS011;48830;53.426;10.300;2023-05-13T09:25:37;8.75;;;4.00;;
62790;SDS011;48830;53.426;10.300;2023-05-13T09:28:04;7.93;;;3.95;;
62790;SDS011;48830;53.426;10.300;2023-05-13T09:30:38;7.43;;;3.97;;
62790;SDS011;48830;53.426;10.300;2023-05-13T09:33:12;7.97;;;3.75;;
62790;SDS011;48830;53.426;10.300;2023-05-13T09:35:40;6.93;;;3.88;;
62790;SDS011;48830;53.426;10.300;2023-05-13T09:38:17;9.23;;;3.90;;
62790;SDS011;48830;53.426;10.300;2023-05-13T09:40:54;8.18;;;3.97;;
62790;SDS011;48830;53.426;10.300;2023-05-13T09:43:22;7.05;;;3.45;;
62790;SDS011;48830;53.426;10.300;2023-05-13T09:45:54;9.45;;;4.20;;
62790;SDS011;48830;53.426;10.300;2023-05-13T09:48:21;5.70;;;3.90;;
62790;SDS011;48830;53.426;10.300;2023-05-13T09:50:48;9.43;;;4.00;;
62790;SDS011;48830;53.426;10.300;2023-05-13T09:53:15;6.20;;;3.40;;
62790;SDS011;48830;53.426;10.300;2023-05-13T09:55:47;8.38;;;3.80;;
62790;SDS011;48830;53.426;10.300;2023-05-13T09:58:15;9.77;;;4.05;;
62790;SDS011;48830;53.426;10.300;2023-05-13T10:00:40;7.55;;;3.60;;
62790;SDS011;48830;53.426;10.300;2023-05-13T10:03:07;9.55;;;3.85;;
62790;SDS011;48830;53.426;10.300;2023-05-13T10:05:33;7.20;;;4.00;;
62790;SDS011;48830;53.426;10.300;2023-05-13T10:08:00;9.80;;;4.00;;
62790;SDS011;48830;53.426;10.300;2023-05-13T10:10:30;8.57;;;3.90;;
62790;SDS011;48830;53.426;10.300;2023-05-13T10:13:02;7.88;;;3.42;;
62790;SDS011;48830;53.426;10.300;2023-05-13T10:15:31;7.47;;;3.60;;
62790;SDS011;48830;53.426;10.300;2023-05-13T10:17:58;7.05;;;3.63;;
62790;SDS011;48830;53.426;10.300;2023-05-13T10:20:24;6.25;;;3.30;;
62790;SDS011;48830;53.426;10.300;2023-05-13T10:22:50;7.00;;;3.45;;
62790;SDS011;48830;53.426;10.300;2023-05-13T10:25:16;7.35;;;3.17;;
62790;SDS011;48830;53.426;10.300;2023-05-13T10:27:42;6.90;;;2.90;;
62790;SDS011;48830;53.426;10.300;2023-05-13T10:30:08;5.80;;;3.00;;
62790;SDS011;48830;53.426;10.300;2023-05-13T10:32:35;5.93;;;2.90;;
62790;SDS011;48830;53.426;10.300;2023-05-13T10:37:44;5.18;;;2.88;;
62790;SDS011;48830;53.426;10.300;2023-05-13T10:40:37;5.78;;;2.83;;
62790;SDS011;48830;53.426;10.300;2023-05-13T10:43:09;6.20;;;2.78;;
62790;SDS011;48830;53.426;10.300;2023-05-13T10:45:43;5.15;;;2.70;;
62790;SDS011;48830;53.426;10.300;2023-05-13T10:48:13;5.18;;;2.60;;
62790;SDS011;48830;53.426;10.300;2023-05-13T10:50:49;6.65;;;3.28;;
62790;SDS011;48830;53.426;10.300;2023-05-13T10:53:21;9.07;;;2.90;;
62790;SDS011;48830;53.426;10.300;2023-05-13T10:55:50;6.82;;;2.88;;
62790;SDS011;48830;53.426;10.300;2023-05-13T10:58:17;7.70;;;3.08;;
62790;SDS011;48830;53.426;10.300;2023-05-13T11:00:46;8.30;;;3.30;;
62790;SDS011;48830;53.426;10.300;2023-05-13T11:03:14;8.73;;;3.20;;
62790;SDS011;48830;53.426;10.300;2023-05-13T11:05:41;6.75;;;3.22;;
62790;SDS011;48830;53.426;10.300;2023-05-13T11:08:09;7.22;;;2.80;;
62790;SDS011;48830;53.426;10.300;2023-05-13T11:10:34;6.35;;;3.60;;
62790;SDS011;48830;53.426;10.300;2023-05-13T11:15:44;7.03;;;3.20;;
62790;SDS011;48830;53.426;10.300;2023-05-13T11:18:13;7.72;;;3.50;;
62790;SDS011;48830;53.426;10.300;2023-05-13T11:20:39;7.95;;;3.40;;
62790;SDS011;48830;53.426;10.300;2023-05-13T11:23:05;7.57;;;3.20;;
62790;SDS011;48830;53.426;10.300;2023-05-13T11:25:32;6.70;;;3.58;;
62790;SDS011;48830;53.426;10.300;2023-05-13T11:27:58;4.00;;;2.83;;
62790;SDS011;48830;53.426;10.300;2023-05-13T11:30:26;7.20;;;3.40;;
62790;SDS011;48830;53.426;10.300;2023-05-13T11:32:53;5.28;;;3.03;;
62790;SDS011;48830;53.426;10.300;2023-05-13T11:35:20;8.43;;;2.67;;
62790;SDS011;48830;53.426;10.300;2023-05-13T11:37:47;5.20;;;3.25;;
62790;SDS011;48830;53.426;10.300;2023-05-13T11:40:22;7.25;;;3.08;;
62790;SDS011;48830;53.426;10.300;2023-05-13T11:42:48;6.55;;;3.58;;
62790;SDS011;48830;53.426;10.300;2023-05-13T11:45:15;6.40;;;2.90;;
62790;SDS011;48830;53.426;10.300;2023-05-13T11:47:42;5.88;;;3.00;;
62790;SDS011;48830;53.426;10.300;2023-05-13T11:50:27;6.70;;;3.00;;
62790;SDS011;48830;53.426;10.300;2023-05-13T11:52:57;4.93;;;2.80;;
62790;SDS011;48830;53.426;10.300;2023-05-13T11:55:31;9.10;;;3.70;;
62790;SDS011;48830;53.426;10.300;2023-05-13T11:57:59;5.72;;;3.10;;
62790;SDS011;48830;53.426;10.300;2023-05-13T12:00:25;6.25;;;2.70;;
62790;SDS011;48830;53.426;10.300;2023-05-13T12:02:55;8.02;;;3.10;;
62790;SDS011;48830;53.426;10.300;2023-05-13T12:05:22;7.95;;;3.00;;
62790;SDS011;48830;53.426;10.300;2023-05-13T12:07:48;7.47;;;2.92;;
62790;SDS011;48830;53.426;10.300;2023-05-13T12:10:14;6.15;;;2.90;;
62790;SDS011;48830;53.426;10.300;2023-05-13T12:12:41;4.13;;;2.80;;
62790;SDS011;48830;53.426;10.300;2023-05-13T12:17:38;7.28;;;3.47;;
62790;SDS011;48830;53.426;10.300;2023-05-13T12:20:13;9.93;;;3.05;;
62790;SDS011;48830;53.426;10.300;2023-05-13T12:27:59;8.05;;;2.80;;
62790;SDS011;48830;53.426;10.300;2023-05-13T12:30:35;5.95;;;2.78;;
62790;SDS011;48830;53.426;10.300;2023-05-13T12:33:02;8.35;;;3.03;;
62790;SDS011;48830;53.426;10.300;2023-05-13T12:35:29;5.35;;;3.03;;
62790;SDS011;48830;53.426;10.300;2023-05-13T12:38:04;8.00;;;3.00;;
62790;SDS011;48830;53.426;10.300;2023-05-13T12:40:30;6.95;;;2.83;;
62790;SDS011;48830;53.426;10.300;2023-05-13T12:42:59;7.07;;;3.08;;
62790;SDS011;48830;53.426;10.300;2023-05-13T12:45:27;5.50;;;2.55;;
62790;SDS011;48830;53.426;10.300;2023-05-13T12:47:54;5.93;;;2.92;;
62790;SDS011;48830;53.426;10.300;2023-05-13T12:50:19;9.80;;;3.22;;
62790;SDS011;48830;53.426;10.300;2023-05-13T12:52:45;6.30;;;3.10;;
62790;SDS011;48830;53.426;10.300;2023-05-13T12:55:10;7.03;;;2.85;;
62790;SDS011;48830;53.426;10.300;2023-05-13T12:57:38;5.55;;;2.78;;
62790;SDS011;48830;53.426;10.300;2023-05-13T13:00:05;5.47;;;2.80;;
62790;SDS011;48830;53.426;10.300;2023-05-13T13:02:31;5.55;;;3.00;;
62790;SDS011;48830;53.426;10.300;2023-05-13T13:04:57;6.40;;;2.88;;
62790;SDS011;48830;53.426;10.300;2023-05-13T13:07:22;6.85;;;2.83;;
62790;SDS011;48830;53.426;10.300;2023-05-13T13:09:48;5.05;;;2.85;;
62790;SDS011;48830;53.426;10.300;2023-05-13T13:12:13;7.40;;;3.10;;
62790;SDS011;48830;53.426;10.300;2023-05-13T13:14:39;5.25;;;3.13;;
62790;SDS011;48830;53.426;10.300;2023-05-13T13:17:04;6.22;;;3.17;;
62790;SDS011;48830;53.426;10.300;2023-05-13T13:19:30;5.18;;;2.70;;
62790;SDS011;48830;53.426;10.300;2023-05-13T13:21:55;6.10;;;2.75;;
62790;SDS011;48830;53.426;10.300;2023-05-13T13:24:21;5.18;;;2.90;;
62790;SDS011;48830;53.426;10.300;2023-05-13T13:26:46;8.85;;;4.40;;
62790;SDS011;48830;53.426;10.300;2023-05-13T13:29:14;5.32;;;3.08;;
62790;SDS011;48830;53.426;10.300;2023-05-13T13:31:39;6.03;;;3.85;;
62790;SDS011;48830;53.426;10.300;2023-05-13T13:34:05;5.93;;;3.08;;
62790;SDS011;48830;53.426;10.300;2023-05-13T13:36:30;5.38;;;3.20;;
62790;SDS011;48830;53.426;10.300;2023-05-13T13:38:56;7.75;;;3.45;;
62790;SDS011;48830;53.426;10.300;2023-05-13T13:41:22;5.88;;;3.35;;
62790;SDS011;48830;53.426;10.300;2023-05-13T13:43:49;6.47;;;2.80;;
62790;SDS011;48830;53.426;10.300;2023-05-13T13:46:15;5.47;;;2.80;;
62790;SDS011;48830;53.426;10.300;2023-05-13T13:48:41;7.47;;;2.72;;
62790;SDS011;48830;53.426;10.300;2023-05-13T13:51:06;7.72;;;2.97;;
62790;SDS011;48830;53.426;10.300;2023-05-13T13:53:32;5.28;;;2.80;;
62790;SDS011;48830;53.426;10.300;2023-05-13T13:55:57;6.07;;;2.65;;
62790;SDS011;48830;53.426;10.300;2023-05-13T13:58:23;6.15;;;2.78;;
62790;SDS011;48830;53.426;10.300;2023-05-13T14:00:48;5.18;;;2.70;;
62790;SDS011;48830;53.426;10.300;2023-05-13T14:03:14;7.82;;;2.80;;
62790;SDS011;48830;53.426;10.300;2023-05-13T14:05:39;5.85;;;2.72;;
62790;SDS011;48830;53.426;10.300;2023-05-13T14:08:04;5.28;;;2.60;;
62790;SDS011;48830;53.426;10.300;2023-05-13T14:10:30;4.03;;;2.38;;
62790;SDS011;48830;53.426;10.300;2023-05-13T14:12:55;4.40;;;2.67;;
62790;SDS011;48830;53.426;10.300;2023-05-13T14:15:21;4.07;;;2.58;;
62790;SDS011;48830;53.426;10.300;2023-05-13T14:17:48;5.18;;;2.67;;
62790;SDS011;48830;53.426;10.300;2023-05-13T14:20:13;7.88;;;2.80;;
62790;SDS011;48830;53.426;10.300;2023-05-13T14:22:39;6.63;;;2.85;;
62790;SDS011;48830;53.426;10.300;2023-05-13T14:25:04;5.78;;;2.55;;
62790;SDS011;48830;53.426;10.300;2023-05-13T14:27:30;5.22;;;2.70;;
62790;SDS011;48830;53.426;10.300;2023-05-13T14:29:58;7.28;;;3.10;;
62790;SDS011;48830;53.426;10.300;2023-05-13T14:32:23;6.30;;;2.78;;
62790;SDS011;48830;53.426;10.300;2023-05-13T14:34:48;5.68;;;2.42;;
62790;SDS011;48830;53.426;10.300;2023-05-13T14:37:14;5.40;;;2.70;;
62790;SDS011;48830;53.426;10.300;2023-05-13T14:39:39;6.00;;;2.75;;
62790;SDS011;48830;53.426;10.300;2023-05-13T14:42:05;4.97;;;2.58;;
62790;SDS011;48830;53.426;10.300;2023-05-13T14:44:30;5.30;;;2.50;;
62790;SDS011;48830;53.426;10.300;2023-05-13T14:46:56;4.70;;;2.67;;
62790;SDS011;48830;53.426;10.300;2023-05-13T14:49:21;4.55;;;2.63;;
62790;SDS011;48830;53.426;10.300;2023-05-13T14:51:47;4.75;;;2.65;;